<?xml version="1.0" encoding="UTF-8" standalone="no" ?>
<gpx xmlns="http://www.topografix.com/GPX/1/1" xmlns:xsi="http://www.w3.org/2001/XMLSchema-instance" xsi:schemaLocation="http://www.topografix.com/GPX/1/1 http://www.topografix.com/GPX/1/1/gpx.xsd" version="1.1" creator="VisuGPX - https://www.visugpx.com">
  <metadata>
    <name>Vacances 2021</name>
  </metadata>
  <trk>
    <name><![CDATA[Journal actif: 2021-07-23 16:37]]></name>
    <trkseg>
      <trkpt lat="49.21535" lon="5.43844">
        <ele>386.59</ele>
        <time>2021-07-23T18:37:10Z</time>
      </trkpt>
      <trkpt lat="49.21536" lon="5.4383">
        <ele>386.11</ele>
        <time>2021-07-23T18:37:26Z</time>
      </trkpt>
      <trkpt lat="49.2153" lon="5.43824">
        <ele>386.11</ele>
        <time>2021-07-23T18:37:28Z</time>
      </trkpt>
      <trkpt lat="49.21477" lon="5.4376">
        <ele>381.78</ele>
        <time>2021-07-23T18:37:40Z</time>
      </trkpt>
      <trkpt lat="49.21386" lon="5.43634">
        <ele>374.57</ele>
        <time>2021-07-23T18:37:51Z</time>
      </trkpt>
      <trkpt lat="49.21306" lon="5.43461">
        <ele>366.88</ele>
        <time>2021-07-23T18:38:02Z</time>
      </trkpt>
      <trkpt lat="49.21162" lon="5.43193">
        <ele>358.71</ele>
        <time>2021-07-23T18:38:19Z</time>
      </trkpt>
      <trkpt lat="49.21058" lon="5.43069">
        <ele>353.42</ele>
        <time>2021-07-23T18:38:30Z</time>
      </trkpt>
      <trkpt lat="49.20899" lon="5.42916">
        <ele>347.17</ele>
        <time>2021-07-23T18:38:44Z</time>
      </trkpt>
      <trkpt lat="49.20828" lon="5.42806">
        <ele>343.81</ele>
        <time>2021-07-23T18:38:54Z</time>
      </trkpt>
      <trkpt lat="49.20825" lon="5.42801">
        <ele>343.33</ele>
        <time>2021-07-23T18:38:55Z</time>
      </trkpt>
      <trkpt lat="49.20823" lon="5.42798">
        <ele>343.81</ele>
        <time>2021-07-23T18:38:56Z</time>
      </trkpt>
      <trkpt lat="49.20821" lon="5.42795">
        <ele>343.81</ele>
        <time>2021-07-23T18:38:57Z</time>
      </trkpt>
      <trkpt lat="49.2082" lon="5.42794">
        <ele>343.81</ele>
        <time>2021-07-23T18:38:58Z</time>
      </trkpt>
      <trkpt lat="49.20819" lon="5.42793">
        <ele>343.81</ele>
        <time>2021-07-23T18:38:59Z</time>
      </trkpt>
      <trkpt lat="49.20824" lon="5.42783">
        <ele>344.29</ele>
        <time>2021-07-23T18:39:00Z</time>
      </trkpt>
      <trkpt lat="49.20824" lon="5.42783">
        <ele>344.29</ele>
        <time>2021-07-23T18:39:01Z</time>
      </trkpt>
      <trkpt lat="49.20825" lon="5.42783">
        <ele>344.77</ele>
        <time>2021-07-23T18:39:02Z</time>
      </trkpt>
      <trkpt lat="49.20828" lon="5.42783">
        <ele>344.77</ele>
        <time>2021-07-23T18:39:03Z</time>
      </trkpt>
      <trkpt lat="49.20831" lon="5.42783">
        <ele>344.77</ele>
        <time>2021-07-23T18:39:04Z</time>
      </trkpt>
      <trkpt lat="49.2084" lon="5.42783">
        <ele>344.77</ele>
        <time>2021-07-23T18:39:05Z</time>
      </trkpt>
      <trkpt lat="49.20908" lon="5.42784">
        <ele>349.58</ele>
        <time>2021-07-23T18:39:18Z</time>
      </trkpt>
      <trkpt lat="49.2098" lon="5.42776">
        <ele>354.38</ele>
        <time>2021-07-23T18:39:31Z</time>
      </trkpt>
      <trkpt lat="49.21078" lon="5.42763">
        <ele>354.38</ele>
        <time>2021-07-23T18:39:44Z</time>
      </trkpt>
      <trkpt lat="49.21177" lon="5.42739">
        <ele>345.73</ele>
        <time>2021-07-23T18:39:55Z</time>
      </trkpt>
      <trkpt lat="49.21275" lon="5.42703">
        <ele>334.2</ele>
        <time>2021-07-23T18:40:04Z</time>
      </trkpt>
      <trkpt lat="49.21285" lon="5.42698">
        <ele>332.75</ele>
        <time>2021-07-23T18:40:05Z</time>
      </trkpt>
      <trkpt lat="49.21293" lon="5.42686">
        <ele>331.31</ele>
        <time>2021-07-23T18:40:06Z</time>
      </trkpt>
      <trkpt lat="49.213" lon="5.42674">
        <ele>332.75</ele>
        <time>2021-07-23T18:40:07Z</time>
      </trkpt>
      <trkpt lat="49.21306" lon="5.42663">
        <ele>331.79</ele>
        <time>2021-07-23T18:40:08Z</time>
      </trkpt>
      <trkpt lat="49.21309" lon="5.42652">
        <ele>331.31</ele>
        <time>2021-07-23T18:40:09Z</time>
      </trkpt>
      <trkpt lat="49.21311" lon="5.42641">
        <ele>330.83</ele>
        <time>2021-07-23T18:40:10Z</time>
      </trkpt>
      <trkpt lat="49.21313" lon="5.42633">
        <ele>330.83</ele>
        <time>2021-07-23T18:40:11Z</time>
      </trkpt>
      <trkpt lat="49.21325" lon="5.42559">
        <ele>332.75</ele>
        <time>2021-07-23T18:40:22Z</time>
      </trkpt>
      <trkpt lat="49.21325" lon="5.42559">
        <ele>332.27</ele>
        <time>2021-07-23T18:40:23Z</time>
      </trkpt>
      <trkpt lat="49.21326" lon="5.42552">
        <ele>331.79</ele>
        <time>2021-07-23T18:40:24Z</time>
      </trkpt>
      <trkpt lat="49.21327" lon="5.42547">
        <ele>331.31</ele>
        <time>2021-07-23T18:40:25Z</time>
      </trkpt>
      <trkpt lat="49.21327" lon="5.42543">
        <ele>331.31</ele>
        <time>2021-07-23T18:40:26Z</time>
      </trkpt>
      <trkpt lat="49.21328" lon="5.42539">
        <ele>330.83</ele>
        <time>2021-07-23T18:40:27Z</time>
      </trkpt>
      <trkpt lat="49.21328" lon="5.42536">
        <ele>330.83</ele>
        <time>2021-07-23T18:40:28Z</time>
      </trkpt>
      <trkpt lat="49.21329" lon="5.42534">
        <ele>330.35</ele>
        <time>2021-07-23T18:40:46Z</time>
      </trkpt>
      <trkpt lat="49.21329" lon="5.42534">
        <ele>330.35</ele>
        <time>2021-07-23T18:46:38Z</time>
      </trkpt>
      <trkpt lat="49.21329" lon="5.42534">
        <ele>330.35</ele>
        <time>2021-07-23T18:49:32Z</time>
      </trkpt>
      <trkpt lat="49.21329" lon="5.42534">
        <ele>330.35</ele>
        <time>2021-07-23T18:52:22Z</time>
      </trkpt>
      <trkpt lat="49.21329" lon="5.42534">
        <ele>330.83</ele>
        <time>2021-07-23T18:54:47Z</time>
      </trkpt>
      <trkpt lat="49.21329" lon="5.42534">
        <ele>331.31</ele>
        <time>2021-07-23T18:57:11Z</time>
      </trkpt>
      <trkpt lat="49.21329" lon="5.42534">
        <ele>331.31</ele>
        <time>2021-07-23T18:57:36Z</time>
      </trkpt>
      <trkpt lat="49.21331" lon="5.42516">
        <ele>330.83</ele>
        <time>2021-07-23T18:57:43Z</time>
      </trkpt>
      <trkpt lat="49.21331" lon="5.42516">
        <ele>330.83</ele>
        <time>2021-07-23T18:57:44Z</time>
      </trkpt>
      <trkpt lat="49.21342" lon="5.42428">
        <ele>326.99</ele>
        <time>2021-07-23T18:57:52Z</time>
      </trkpt>
      <trkpt lat="49.21358" lon="5.42194">
        <ele>315.93</ele>
        <time>2021-07-23T18:58:07Z</time>
      </trkpt>
      <trkpt lat="49.21323" lon="5.42004">
        <ele>307.76</ele>
        <time>2021-07-23T18:58:17Z</time>
      </trkpt>
      <trkpt lat="49.21294" lon="5.41794">
        <ele>297.18</ele>
        <time>2021-07-23T18:58:27Z</time>
      </trkpt>
      <trkpt lat="49.21299" lon="5.4177">
        <ele>296.7</ele>
        <time>2021-07-23T18:58:28Z</time>
      </trkpt>
      <trkpt lat="49.21302" lon="5.41755">
        <ele>296.22</ele>
        <time>2021-07-23T18:58:29Z</time>
      </trkpt>
      <trkpt lat="49.21311" lon="5.41739">
        <ele>295.26</ele>
        <time>2021-07-23T18:58:30Z</time>
      </trkpt>
      <trkpt lat="49.21328" lon="5.4171">
        <ele>293.34</ele>
        <time>2021-07-23T18:58:31Z</time>
      </trkpt>
      <trkpt lat="49.21336" lon="5.41706">
        <ele>290.94</ele>
        <time>2021-07-23T18:58:32Z</time>
      </trkpt>
      <trkpt lat="49.21336" lon="5.41706">
        <ele>291.9</ele>
        <time>2021-07-23T18:58:33Z</time>
      </trkpt>
      <trkpt lat="49.21362" lon="5.41695">
        <ele>292.86</ele>
        <time>2021-07-23T18:58:34Z</time>
      </trkpt>
      <trkpt lat="49.21376" lon="5.41692">
        <ele>293.34</ele>
        <time>2021-07-23T18:58:35Z</time>
      </trkpt>
      <trkpt lat="49.2139" lon="5.4169">
        <ele>292.86</ele>
        <time>2021-07-23T18:58:36Z</time>
      </trkpt>
      <trkpt lat="49.21447" lon="5.41676">
        <ele>292.38</ele>
        <time>2021-07-23T18:58:41Z</time>
      </trkpt>
      <trkpt lat="49.21461" lon="5.4167">
        <ele>290.94</ele>
        <time>2021-07-23T18:58:42Z</time>
      </trkpt>
      <trkpt lat="49.21475" lon="5.41663">
        <ele>290.94</ele>
        <time>2021-07-23T18:58:43Z</time>
      </trkpt>
      <trkpt lat="49.21569" lon="5.41567">
        <ele>283.73</ele>
        <time>2021-07-23T18:58:51Z</time>
      </trkpt>
      <trkpt lat="49.21626" lon="5.41417">
        <ele>279.88</ele>
        <time>2021-07-23T18:58:59Z</time>
      </trkpt>
      <trkpt lat="49.21681" lon="5.41249">
        <ele>273.63</ele>
        <time>2021-07-23T18:59:07Z</time>
      </trkpt>
      <trkpt lat="49.21696" lon="5.41216">
        <ele>271.71</ele>
        <time>2021-07-23T18:59:09Z</time>
      </trkpt>
      <trkpt lat="49.21704" lon="5.41206">
        <ele>270.75</ele>
        <time>2021-07-23T18:59:10Z</time>
      </trkpt>
      <trkpt lat="49.21714" lon="5.41198">
        <ele>269.79</ele>
        <time>2021-07-23T18:59:11Z</time>
      </trkpt>
      <trkpt lat="49.21718" lon="5.41195">
        <ele>268.83</ele>
        <time>2021-07-23T18:59:12Z</time>
      </trkpt>
      <trkpt lat="49.2173" lon="5.41193">
        <ele>269.31</ele>
        <time>2021-07-23T18:59:13Z</time>
      </trkpt>
      <trkpt lat="49.21742" lon="5.41192">
        <ele>269.31</ele>
        <time>2021-07-23T18:59:14Z</time>
      </trkpt>
      <trkpt lat="49.21766" lon="5.41189">
        <ele>268.83</ele>
        <time>2021-07-23T18:59:15Z</time>
      </trkpt>
      <trkpt lat="49.21766" lon="5.41189">
        <ele>267.86</ele>
        <time>2021-07-23T18:59:16Z</time>
      </trkpt>
      <trkpt lat="49.21779" lon="5.41187">
        <ele>266.9</ele>
        <time>2021-07-23T18:59:17Z</time>
      </trkpt>
      <trkpt lat="49.21877" lon="5.41136">
        <ele>259.69</ele>
        <time>2021-07-23T18:59:24Z</time>
      </trkpt>
      <trkpt lat="49.2189" lon="5.41126">
        <ele>258.73</ele>
        <time>2021-07-23T18:59:25Z</time>
      </trkpt>
      <trkpt lat="49.21901" lon="5.41111">
        <ele>256.81</ele>
        <time>2021-07-23T18:59:26Z</time>
      </trkpt>
      <trkpt lat="49.21912" lon="5.41097">
        <ele>255.37</ele>
        <time>2021-07-23T18:59:27Z</time>
      </trkpt>
      <trkpt lat="49.21921" lon="5.41079">
        <ele>254.41</ele>
        <time>2021-07-23T18:59:28Z</time>
      </trkpt>
      <trkpt lat="49.21931" lon="5.4106">
        <ele>252.96</ele>
        <time>2021-07-23T18:59:29Z</time>
      </trkpt>
      <trkpt lat="49.21948" lon="5.41028">
        <ele>250.56</ele>
        <time>2021-07-23T18:59:31Z</time>
      </trkpt>
      <trkpt lat="49.21959" lon="5.41018">
        <ele>249.12</ele>
        <time>2021-07-23T18:59:32Z</time>
      </trkpt>
      <trkpt lat="49.21968" lon="5.41013">
        <ele>247.68</ele>
        <time>2021-07-23T18:59:33Z</time>
      </trkpt>
      <trkpt lat="49.21976" lon="5.41008">
        <ele>244.31</ele>
        <time>2021-07-23T18:59:34Z</time>
      </trkpt>
      <trkpt lat="49.21989" lon="5.41008">
        <ele>241.91</ele>
        <time>2021-07-23T18:59:35Z</time>
      </trkpt>
      <trkpt lat="49.22001" lon="5.41009">
        <ele>240.95</ele>
        <time>2021-07-23T18:59:36Z</time>
      </trkpt>
      <trkpt lat="49.22011" lon="5.41015">
        <ele>239.51</ele>
        <time>2021-07-23T18:59:37Z</time>
      </trkpt>
      <trkpt lat="49.22022" lon="5.41025">
        <ele>238.54</ele>
        <time>2021-07-23T18:59:38Z</time>
      </trkpt>
      <trkpt lat="49.22032" lon="5.41036">
        <ele>237.1</ele>
        <time>2021-07-23T18:59:39Z</time>
      </trkpt>
      <trkpt lat="49.22041" lon="5.41047">
        <ele>236.14</ele>
        <time>2021-07-23T18:59:40Z</time>
      </trkpt>
      <trkpt lat="49.22067" lon="5.41075">
        <ele>235.18</ele>
        <time>2021-07-23T18:59:43Z</time>
      </trkpt>
      <trkpt lat="49.2207" lon="5.41079">
        <ele>235.18</ele>
        <time>2021-07-23T18:59:44Z</time>
      </trkpt>
      <trkpt lat="49.22081" lon="5.41082">
        <ele>234.22</ele>
        <time>2021-07-23T18:59:45Z</time>
      </trkpt>
      <trkpt lat="49.22085" lon="5.41083">
        <ele>233.26</ele>
        <time>2021-07-23T18:59:46Z</time>
      </trkpt>
      <trkpt lat="49.22094" lon="5.41077">
        <ele>231.81</ele>
        <time>2021-07-23T18:59:47Z</time>
      </trkpt>
      <trkpt lat="49.221" lon="5.41072">
        <ele>230.85</ele>
        <time>2021-07-23T18:59:48Z</time>
      </trkpt>
      <trkpt lat="49.22105" lon="5.41063">
        <ele>230.37</ele>
        <time>2021-07-23T18:59:49Z</time>
      </trkpt>
      <trkpt lat="49.22107" lon="5.41043">
        <ele>230.85</ele>
        <time>2021-07-23T18:59:50Z</time>
      </trkpt>
      <trkpt lat="49.22106" lon="5.41033">
        <ele>230.85</ele>
        <time>2021-07-23T18:59:51Z</time>
      </trkpt>
      <trkpt lat="49.22106" lon="5.41033">
        <ele>230.37</ele>
        <time>2021-07-23T18:59:52Z</time>
      </trkpt>
      <trkpt lat="49.22102" lon="5.4102">
        <ele>230.37</ele>
        <time>2021-07-23T18:59:53Z</time>
      </trkpt>
      <trkpt lat="49.22064" lon="5.40858">
        <ele>226.53</ele>
        <time>2021-07-23T19:00:02Z</time>
      </trkpt>
      <trkpt lat="49.22021" lon="5.40552">
        <ele>224.12</ele>
        <time>2021-07-23T19:00:15Z</time>
      </trkpt>
      <trkpt lat="49.22006" lon="5.40301">
        <ele>221.72</ele>
        <time>2021-07-23T19:00:25Z</time>
      </trkpt>
      <trkpt lat="49.22032" lon="5.40057">
        <ele>218.36</ele>
        <time>2021-07-23T19:00:35Z</time>
      </trkpt>
      <trkpt lat="49.22039" lon="5.40038">
        <ele>218.36</ele>
        <time>2021-07-23T19:00:36Z</time>
      </trkpt>
      <trkpt lat="49.22055" lon="5.39997">
        <ele>217.4</ele>
        <time>2021-07-23T19:00:37Z</time>
      </trkpt>
      <trkpt lat="49.22116" lon="5.39832">
        <ele>218.36</ele>
        <time>2021-07-23T19:00:45Z</time>
      </trkpt>
      <trkpt lat="49.22119" lon="5.39811">
        <ele>218.84</ele>
        <time>2021-07-23T19:00:46Z</time>
      </trkpt>
      <trkpt lat="49.22119" lon="5.39811">
        <ele>217.88</ele>
        <time>2021-07-23T19:00:47Z</time>
      </trkpt>
      <trkpt lat="49.2212" lon="5.3979">
        <ele>218.36</ele>
        <time>2021-07-23T19:00:48Z</time>
      </trkpt>
      <trkpt lat="49.22122" lon="5.39767">
        <ele>217.4</ele>
        <time>2021-07-23T19:00:49Z</time>
      </trkpt>
      <trkpt lat="49.22118" lon="5.39744">
        <ele>216.43</ele>
        <time>2021-07-23T19:00:50Z</time>
      </trkpt>
      <trkpt lat="49.22114" lon="5.39719">
        <ele>215.47</ele>
        <time>2021-07-23T19:00:51Z</time>
      </trkpt>
      <trkpt lat="49.22108" lon="5.39695">
        <ele>214.99</ele>
        <time>2021-07-23T19:00:52Z</time>
      </trkpt>
      <trkpt lat="49.22102" lon="5.39673">
        <ele>214.03</ele>
        <time>2021-07-23T19:00:53Z</time>
      </trkpt>
      <trkpt lat="49.22031" lon="5.39428">
        <ele>212.11</ele>
        <time>2021-07-23T19:01:04Z</time>
      </trkpt>
      <trkpt lat="49.21964" lon="5.39144">
        <ele>209.7</ele>
        <time>2021-07-23T19:01:16Z</time>
      </trkpt>
      <trkpt lat="49.21897" lon="5.38895">
        <ele>206.82</ele>
        <time>2021-07-23T19:01:27Z</time>
      </trkpt>
      <trkpt lat="49.21877" lon="5.38741">
        <ele>205.86</ele>
        <time>2021-07-23T19:01:34Z</time>
      </trkpt>
      <trkpt lat="49.21871" lon="5.38724">
        <ele>205.86</ele>
        <time>2021-07-23T19:01:35Z</time>
      </trkpt>
      <trkpt lat="49.21823" lon="5.38611">
        <ele>206.34</ele>
        <time>2021-07-23T19:01:42Z</time>
      </trkpt>
      <trkpt lat="49.21673" lon="5.38431">
        <ele>206.34</ele>
        <time>2021-07-23T19:01:56Z</time>
      </trkpt>
      <trkpt lat="49.21542" lon="5.38282">
        <ele>207.3</ele>
        <time>2021-07-23T19:02:06Z</time>
      </trkpt>
      <trkpt lat="49.2138" lon="5.38063">
        <ele>204.9</ele>
        <time>2021-07-23T19:02:22Z</time>
      </trkpt>
      <trkpt lat="49.21361" lon="5.38047">
        <ele>202.98</ele>
        <time>2021-07-23T19:02:24Z</time>
      </trkpt>
      <trkpt lat="49.21351" lon="5.38037">
        <ele>202.49</ele>
        <time>2021-07-23T19:02:25Z</time>
      </trkpt>
      <trkpt lat="49.21339" lon="5.38031">
        <ele>202.01</ele>
        <time>2021-07-23T19:02:26Z</time>
      </trkpt>
      <trkpt lat="49.21328" lon="5.38027">
        <ele>201.05</ele>
        <time>2021-07-23T19:02:27Z</time>
      </trkpt>
      <trkpt lat="49.21318" lon="5.38024">
        <ele>201.05</ele>
        <time>2021-07-23T19:02:28Z</time>
      </trkpt>
      <trkpt lat="49.21178" lon="5.37964">
        <ele>195.28</ele>
        <time>2021-07-23T19:02:40Z</time>
      </trkpt>
      <trkpt lat="49.21088" lon="5.37894">
        <ele>191.92</ele>
        <time>2021-07-23T19:02:49Z</time>
      </trkpt>
      <trkpt lat="49.21082" lon="5.37885">
        <ele>191.44</ele>
        <time>2021-07-23T19:02:50Z</time>
      </trkpt>
      <trkpt lat="49.21077" lon="5.37872">
        <ele>191.44</ele>
        <time>2021-07-23T19:02:51Z</time>
      </trkpt>
      <trkpt lat="49.21073" lon="5.3786">
        <ele>191.92</ele>
        <time>2021-07-23T19:02:52Z</time>
      </trkpt>
      <trkpt lat="49.21069" lon="5.37848">
        <ele>192.4</ele>
        <time>2021-07-23T19:02:53Z</time>
      </trkpt>
      <trkpt lat="49.2101" lon="5.37608">
        <ele>190.48</ele>
        <time>2021-07-23T19:03:11Z</time>
      </trkpt>
      <trkpt lat="49.21003" lon="5.37566">
        <ele>190</ele>
        <time>2021-07-23T19:03:17Z</time>
      </trkpt>
      <trkpt lat="49.21009" lon="5.37558">
        <ele>190</ele>
        <time>2021-07-23T19:03:30Z</time>
      </trkpt>
      <trkpt lat="49.21018" lon="5.37553">
        <ele>190</ele>
        <time>2021-07-23T19:03:31Z</time>
      </trkpt>
      <trkpt lat="49.21079" lon="5.3752">
        <ele>190</ele>
        <time>2021-07-23T19:03:41Z</time>
      </trkpt>
      <trkpt lat="49.21092" lon="5.37513">
        <ele>190</ele>
        <time>2021-07-23T19:03:48Z</time>
      </trkpt>
      <trkpt lat="49.21098" lon="5.37507">
        <ele>190</ele>
        <time>2021-07-23T19:03:53Z</time>
      </trkpt>
      <trkpt lat="49.21098" lon="5.37507">
        <ele>190</ele>
        <time>2021-07-23T19:03:54Z</time>
      </trkpt>
      <trkpt lat="49.21098" lon="5.37503">
        <ele>190</ele>
        <time>2021-07-23T19:03:55Z</time>
      </trkpt>
      <trkpt lat="49.21098" lon="5.37497">
        <ele>190</ele>
        <time>2021-07-23T19:03:56Z</time>
      </trkpt>
      <trkpt lat="49.21097" lon="5.37492">
        <ele>190</ele>
        <time>2021-07-23T19:03:57Z</time>
      </trkpt>
      <trkpt lat="49.21097" lon="5.37415">
        <ele>188.56</ele>
        <time>2021-07-23T19:04:10Z</time>
      </trkpt>
      <trkpt lat="49.21112" lon="5.37346">
        <ele>188.56</ele>
        <time>2021-07-23T19:04:21Z</time>
      </trkpt>
      <trkpt lat="49.21117" lon="5.37328">
        <ele>188.56</ele>
        <time>2021-07-23T19:04:30Z</time>
      </trkpt>
      <trkpt lat="49.21118" lon="5.37323">
        <ele>188.56</ele>
        <time>2021-07-23T19:04:31Z</time>
      </trkpt>
      <trkpt lat="49.21119" lon="5.3732">
        <ele>188.56</ele>
        <time>2021-07-23T19:04:32Z</time>
      </trkpt>
      <trkpt lat="49.21119" lon="5.3732">
        <ele>189.04</ele>
        <time>2021-07-23T19:04:33Z</time>
      </trkpt>
      <trkpt lat="49.21119" lon="5.37319">
        <ele>189.04</ele>
        <time>2021-07-23T19:04:36Z</time>
      </trkpt>
      <trkpt lat="49.21119" lon="5.37321">
        <ele>190</ele>
        <time>2021-07-23T19:04:37Z</time>
      </trkpt>
      <trkpt lat="49.21118" lon="5.37323">
        <ele>189.52</ele>
        <time>2021-07-23T19:04:38Z</time>
      </trkpt>
      <trkpt lat="49.21117" lon="5.37326">
        <ele>189.04</ele>
        <time>2021-07-23T19:04:39Z</time>
      </trkpt>
      <trkpt lat="49.21116" lon="5.3733">
        <ele>189.04</ele>
        <time>2021-07-23T19:04:40Z</time>
      </trkpt>
      <trkpt lat="49.21115" lon="5.37333">
        <ele>189.52</ele>
        <time>2021-07-23T19:04:41Z</time>
      </trkpt>
      <trkpt lat="49.21115" lon="5.37335">
        <ele>189.52</ele>
        <time>2021-07-23T19:04:42Z</time>
      </trkpt>
      <trkpt lat="49.21111" lon="5.3735">
        <ele>189.04</ele>
        <time>2021-07-23T19:04:54Z</time>
      </trkpt>
      <trkpt lat="49.21098" lon="5.37409">
        <ele>190</ele>
        <time>2021-07-23T19:05:01Z</time>
      </trkpt>
      <trkpt lat="49.21098" lon="5.37409">
        <ele>190</ele>
        <time>2021-07-23T19:05:02Z</time>
      </trkpt>
      <trkpt lat="49.21098" lon="5.37496">
        <ele>190.48</ele>
        <time>2021-07-23T19:05:11Z</time>
      </trkpt>
      <trkpt lat="49.21098" lon="5.375">
        <ele>190.96</ele>
        <time>2021-07-23T19:05:23Z</time>
      </trkpt>
      <trkpt lat="49.21098" lon="5.375">
        <ele>190.96</ele>
        <time>2021-07-23T19:05:28Z</time>
      </trkpt>
      <trkpt lat="49.21098" lon="5.37505">
        <ele>190.48</ele>
        <time>2021-07-23T19:05:29Z</time>
      </trkpt>
      <trkpt lat="49.21103" lon="5.37508">
        <ele>190.48</ele>
        <time>2021-07-23T19:05:30Z</time>
      </trkpt>
      <trkpt lat="49.21106" lon="5.37507">
        <ele>190.48</ele>
        <time>2021-07-23T19:05:31Z</time>
      </trkpt>
      <trkpt lat="49.21111" lon="5.37504">
        <ele>190.48</ele>
        <time>2021-07-23T19:05:32Z</time>
      </trkpt>
      <trkpt lat="49.21117" lon="5.37501">
        <ele>190.48</ele>
        <time>2021-07-23T19:05:33Z</time>
      </trkpt>
      <trkpt lat="49.21193" lon="5.37462">
        <ele>190.96</ele>
        <time>2021-07-23T19:05:43Z</time>
      </trkpt>
      <trkpt lat="49.21319" lon="5.37396">
        <ele>190</ele>
        <time>2021-07-23T19:05:56Z</time>
      </trkpt>
      <trkpt lat="49.21492" lon="5.37304">
        <ele>188.08</ele>
        <time>2021-07-23T19:06:12Z</time>
      </trkpt>
      <trkpt lat="49.21723" lon="5.3718">
        <ele>186.63</ele>
        <time>2021-07-23T19:06:30Z</time>
      </trkpt>
      <trkpt lat="49.21852" lon="5.37088">
        <ele>188.56</ele>
        <time>2021-07-23T19:06:42Z</time>
      </trkpt>
      <trkpt lat="49.21925" lon="5.36956">
        <ele>187.59</ele>
        <time>2021-07-23T19:06:51Z</time>
      </trkpt>
      <trkpt lat="49.22017" lon="5.36778">
        <ele>189.52</ele>
        <time>2021-07-23T19:07:02Z</time>
      </trkpt>
      <trkpt lat="49.22049" lon="5.36716">
        <ele>189.04</ele>
        <time>2021-07-23T19:07:10Z</time>
      </trkpt>
      <trkpt lat="49.22103" lon="5.36613">
        <ele>189.04</ele>
        <time>2021-07-23T19:07:19Z</time>
      </trkpt>
      <trkpt lat="49.22218" lon="5.3639">
        <ele>190.96</ele>
        <time>2021-07-23T19:07:35Z</time>
      </trkpt>
      <trkpt lat="49.22282" lon="5.36262">
        <ele>190.48</ele>
        <time>2021-07-23T19:07:47Z</time>
      </trkpt>
      <trkpt lat="49.22286" lon="5.36254">
        <ele>190.48</ele>
        <time>2021-07-23T19:07:48Z</time>
      </trkpt>
      <trkpt lat="49.22287" lon="5.36251">
        <ele>190.48</ele>
        <time>2021-07-23T19:07:49Z</time>
      </trkpt>
      <trkpt lat="49.22306" lon="5.36247">
        <ele>190.96</ele>
        <time>2021-07-23T19:07:50Z</time>
      </trkpt>
      <trkpt lat="49.22306" lon="5.36247">
        <ele>190.96</ele>
        <time>2021-07-23T19:07:51Z</time>
      </trkpt>
      <trkpt lat="49.2231" lon="5.36241">
        <ele>190.48</ele>
        <time>2021-07-23T19:07:52Z</time>
      </trkpt>
      <trkpt lat="49.22314" lon="5.36234">
        <ele>190.48</ele>
        <time>2021-07-23T19:07:53Z</time>
      </trkpt>
      <trkpt lat="49.22317" lon="5.36228">
        <ele>190.96</ele>
        <time>2021-07-23T19:07:54Z</time>
      </trkpt>
      <trkpt lat="49.22316" lon="5.36221">
        <ele>190.96</ele>
        <time>2021-07-23T19:07:55Z</time>
      </trkpt>
      <trkpt lat="49.22315" lon="5.36217">
        <ele>190.96</ele>
        <time>2021-07-23T19:07:56Z</time>
      </trkpt>
      <trkpt lat="49.22313" lon="5.36215">
        <ele>190.96</ele>
        <time>2021-07-23T19:07:57Z</time>
      </trkpt>
      <trkpt lat="49.22309" lon="5.36212">
        <ele>190.96</ele>
        <time>2021-07-23T19:07:58Z</time>
      </trkpt>
      <trkpt lat="49.22304" lon="5.36208">
        <ele>190.96</ele>
        <time>2021-07-23T19:07:59Z</time>
      </trkpt>
      <trkpt lat="49.22302" lon="5.3621">
        <ele>190.48</ele>
        <time>2021-07-23T19:08:00Z</time>
      </trkpt>
      <trkpt lat="49.22297" lon="5.36216">
        <ele>190.48</ele>
        <time>2021-07-23T19:08:01Z</time>
      </trkpt>
      <trkpt lat="49.2229" lon="5.36222">
        <ele>190.48</ele>
        <time>2021-07-23T19:08:02Z</time>
      </trkpt>
      <trkpt lat="49.22286" lon="5.36231">
        <ele>190.96</ele>
        <time>2021-07-23T19:08:03Z</time>
      </trkpt>
      <trkpt lat="49.22285" lon="5.36236">
        <ele>190.96</ele>
        <time>2021-07-23T19:08:04Z</time>
      </trkpt>
      <trkpt lat="49.22284" lon="5.36257">
        <ele>191.44</ele>
        <time>2021-07-23T19:08:05Z</time>
      </trkpt>
      <trkpt lat="49.22279" lon="5.36268">
        <ele>191.44</ele>
        <time>2021-07-23T19:08:06Z</time>
      </trkpt>
      <trkpt lat="49.22267" lon="5.36294">
        <ele>190.96</ele>
        <time>2021-07-23T19:08:07Z</time>
      </trkpt>
      <trkpt lat="49.22208" lon="5.36409">
        <ele>190.96</ele>
        <time>2021-07-23T19:08:15Z</time>
      </trkpt>
      <trkpt lat="49.22096" lon="5.36626">
        <ele>190.96</ele>
        <time>2021-07-23T19:08:25Z</time>
      </trkpt>
      <trkpt lat="49.2186" lon="5.37075">
        <ele>189.52</ele>
        <time>2021-07-23T19:08:45Z</time>
      </trkpt>
      <trkpt lat="49.21846" lon="5.37093">
        <ele>189.04</ele>
        <time>2021-07-23T19:08:46Z</time>
      </trkpt>
      <trkpt lat="49.21831" lon="5.37108">
        <ele>190</ele>
        <time>2021-07-23T19:08:47Z</time>
      </trkpt>
      <trkpt lat="49.21815" lon="5.37124">
        <ele>189.52</ele>
        <time>2021-07-23T19:08:48Z</time>
      </trkpt>
      <trkpt lat="49.21799" lon="5.37138">
        <ele>189.04</ele>
        <time>2021-07-23T19:08:49Z</time>
      </trkpt>
      <trkpt lat="49.21782" lon="5.37147">
        <ele>189.04</ele>
        <time>2021-07-23T19:08:50Z</time>
      </trkpt>
      <trkpt lat="49.21463" lon="5.3732">
        <ele>190.96</ele>
        <time>2021-07-23T19:09:07Z</time>
      </trkpt>
      <trkpt lat="49.21289" lon="5.37412">
        <ele>190.96</ele>
        <time>2021-07-23T19:09:18Z</time>
      </trkpt>
      <trkpt lat="49.21149" lon="5.37485">
        <ele>190.48</ele>
        <time>2021-07-23T19:09:32Z</time>
      </trkpt>
      <trkpt lat="49.20932" lon="5.37604">
        <ele>188.08</ele>
        <time>2021-07-23T19:09:51Z</time>
      </trkpt>
      <trkpt lat="49.2074" lon="5.37742">
        <ele>189.52</ele>
        <time>2021-07-23T19:10:08Z</time>
      </trkpt>
      <trkpt lat="49.20546" lon="5.37854">
        <ele>193.84</ele>
        <time>2021-07-23T19:10:22Z</time>
      </trkpt>
      <trkpt lat="49.20397" lon="5.37875">
        <ele>196.73</ele>
        <time>2021-07-23T19:10:33Z</time>
      </trkpt>
      <trkpt lat="49.203" lon="5.37888">
        <ele>197.21</ele>
        <time>2021-07-23T19:10:39Z</time>
      </trkpt>
      <trkpt lat="49.20285" lon="5.37889">
        <ele>197.21</ele>
        <time>2021-07-23T19:10:40Z</time>
      </trkpt>
      <trkpt lat="49.2027" lon="5.37885">
        <ele>196.25</ele>
        <time>2021-07-23T19:10:41Z</time>
      </trkpt>
      <trkpt lat="49.20256" lon="5.37881">
        <ele>196.73</ele>
        <time>2021-07-23T19:10:42Z</time>
      </trkpt>
      <trkpt lat="49.20241" lon="5.37877">
        <ele>197.21</ele>
        <time>2021-07-23T19:10:43Z</time>
      </trkpt>
      <trkpt lat="49.20031" lon="5.37781">
        <ele>200.09</ele>
        <time>2021-07-23T19:10:55Z</time>
      </trkpt>
      <trkpt lat="49.19827" lon="5.3774">
        <ele>200.09</ele>
        <time>2021-07-23T19:11:07Z</time>
      </trkpt>
      <trkpt lat="49.19511" lon="5.37719">
        <ele>201.53</ele>
        <time>2021-07-23T19:11:24Z</time>
      </trkpt>
      <trkpt lat="49.1931" lon="5.37689">
        <ele>204.9</ele>
        <time>2021-07-23T19:11:36Z</time>
      </trkpt>
      <trkpt lat="49.19236" lon="5.37655">
        <ele>206.82</ele>
        <time>2021-07-23T19:11:42Z</time>
      </trkpt>
      <trkpt lat="49.1921" lon="5.37634">
        <ele>207.3</ele>
        <time>2021-07-23T19:11:46Z</time>
      </trkpt>
      <trkpt lat="49.19206" lon="5.3763">
        <ele>207.3</ele>
        <time>2021-07-23T19:11:47Z</time>
      </trkpt>
      <trkpt lat="49.19204" lon="5.37605">
        <ele>206.34</ele>
        <time>2021-07-23T19:11:49Z</time>
      </trkpt>
      <trkpt lat="49.19201" lon="5.37596">
        <ele>205.86</ele>
        <time>2021-07-23T19:11:50Z</time>
      </trkpt>
      <trkpt lat="49.19196" lon="5.37589">
        <ele>206.34</ele>
        <time>2021-07-23T19:11:51Z</time>
      </trkpt>
      <trkpt lat="49.19191" lon="5.37583">
        <ele>206.34</ele>
        <time>2021-07-23T19:11:52Z</time>
      </trkpt>
      <trkpt lat="49.19184" lon="5.37584">
        <ele>206.34</ele>
        <time>2021-07-23T19:11:53Z</time>
      </trkpt>
      <trkpt lat="49.19178" lon="5.37585">
        <ele>206.34</ele>
        <time>2021-07-23T19:11:54Z</time>
      </trkpt>
      <trkpt lat="49.19174" lon="5.37586">
        <ele>206.34</ele>
        <time>2021-07-23T19:11:55Z</time>
      </trkpt>
      <trkpt lat="49.19174" lon="5.37586">
        <ele>207.3</ele>
        <time>2021-07-23T19:11:56Z</time>
      </trkpt>
      <trkpt lat="49.19153" lon="5.37596">
        <ele>207.3</ele>
        <time>2021-07-23T19:11:57Z</time>
      </trkpt>
      <trkpt lat="49.19137" lon="5.37586">
        <ele>207.78</ele>
        <time>2021-07-23T19:11:58Z</time>
      </trkpt>
      <trkpt lat="49.19137" lon="5.37586">
        <ele>208.26</ele>
        <time>2021-07-23T19:11:59Z</time>
      </trkpt>
      <trkpt lat="49.19128" lon="5.3758">
        <ele>209.22</ele>
        <time>2021-07-23T19:12:00Z</time>
      </trkpt>
      <trkpt lat="49.19022" lon="5.37499">
        <ele>211.15</ele>
        <time>2021-07-23T19:12:10Z</time>
      </trkpt>
      <trkpt lat="49.18823" lon="5.37354">
        <ele>214.99</ele>
        <time>2021-07-23T19:12:25Z</time>
      </trkpt>
      <trkpt lat="49.18578" lon="5.37172">
        <ele>217.88</ele>
        <time>2021-07-23T19:12:42Z</time>
      </trkpt>
      <trkpt lat="49.18434" lon="5.37069">
        <ele>219.32</ele>
        <time>2021-07-23T19:12:53Z</time>
      </trkpt>
      <trkpt lat="49.18401" lon="5.37049">
        <ele>221.24</ele>
        <time>2021-07-23T19:12:59Z</time>
      </trkpt>
    </trkseg>
  </trk>
</gpx>